Airfield :
LOGIN :

Register | Disclaimer

   EN    FR    IT 

 










Legend :    VFR   Marginal VFR   IFR   Intensive IFR   Very Intensive IFR
Visi :
Ceiling :
>= 8 km
>= 3000ft
5 to 8 km
1000 to 3000 ft
1500m to 5 km
500 to 1000 ft
800 to 1500m
200 to 500 ft
< 800m
< 200 ft
Symbols :   Thunderstorms  Fog  Heavy snow  Heavy precipitations  Wind > 20 kt
SIGMETs :     Misc.  Thunderstorms  Icing  Turbulence  Mountain Waves  Volcanic Ashes







- Airport Elevation : 1300 ft
- IATA code : LIG
- Download approach charts


LFBL - Limoges

CURRENT METAR :
  • 181530Z AUTO 23011KT 5000 DZ BR OVC004 09/09 Q1015 TEMPO 24015G25KT 1200 RA

EXPIRED METARs :
  • 181500Z AUTO 23013G23KT 200V260 5000 -DZ BR OVC005 09/09 Q1015 TEMPO 1200 RA
  • 181430Z AUTO 23013KT 200V260 8000 -RADZ OVC005 09/09 Q1015 TEMPO 24015G25KT 1200 RA
  • 181400Z AUTO 23014KT 9999 OVC007 09/09 Q1016 TEMPO 24015G25KT 1200 RA OVC002
  • 181330Z AUTO 23012KT 9999 OVC006 09/09 Q1016 TEMPO 24015G25KT 1200 RA OVC002
  • 181300Z AUTO 23013KT 9999 OVC006 09/09 Q1016 TEMPO 24015G25KT 1200 RA OVC002

TAF AMD TAF LFBL
Valid from the 18 at 13:00 until the 19 at 12:00 UTC


181335Z 1813/1912 23012KT 9999 OVC006
TEMPO 1813/1824 24015G25KT 2000 -RADZ OVC003
PROB40
TEMPO 1813/1824 1200 RA OVC002
BECMG 1900/1902 27005KT BKN040
TEMPO 1904/1912 3000 RA BKN004 SCT012TCU
ATIS : +33 5 55 48 40 37
No reported NOTAMs for that airfield.
1 SIGMET reported for the Bordeaux FIR (LFBB) :
 
Severe turbulence
LFBB SIGMET 4 VALID 181300/181700 LFPW
LFBB BORDEAUX FIR/UIR SEV TURB FCST NE OF LINE N4500 E00245 - N4715 E00130 SFC/FL080 STNR WKN=



MET'MAP, your aeronautical weather chart ! - Copyright ORBIFLY December 2007 - Disclaimer

ORBIFLY MET'MAP TEAM :

Programming & Development : Alexandra Zaïnal
Concept & Development : Baudouin d'Aumeries
Co-Development & Prog : Marc-Olivier Méhu
Technical & hardware support : Manuel Goepfert

Contact : metmap@orbifly.com




SOURCES & CREDITS :

   NOAA